Terminal Aerodrome Forecast
Issued by NWS

Home | Current Version | Previous Version | Text Only | Print | Product List | Glossary On
Versions: 1 2 3 4 5 6 7 8 9 10 11 12 13 14 15 16 17
000
FTAK31 PAJN 012300
TAFASI
TAF
PASI 012320Z 0200/0224 VRB04KT P6SM SKC
     FM020300 10005KT P6SM SKC
     FM021500 10008KT P6SM SCT100
     FM022100 10012KT P6SM VCSH OVC050 WS020/12032KT=

USA.gov is the U.S. government's official web portal to all federal, state and local government web resources and services.